createdAt,value
2022-10-18T00:01:21.606Z,0.19
2022-10-18T00:03:01.377Z,0.19
2022-10-18T00:04:41.136Z,0.21
2022-10-18T00:06:20.908Z,0.21
2022-10-18T00:08:00.686Z,0.22
2022-10-18T00:09:40.446Z,0.27
2022-10-18T00:11:20.226Z,0.26
2022-10-18T00:12:59.982Z,0.23
2022-10-18T00:16:19.527Z,0.24
2022-10-18T00:17:59.289Z,0.2
2022-10-18T00:19:39.055Z,0.22
2022-10-18T00:21:18.826Z,0.22
2022-10-18T00:22:58.578Z,0.21
2022-10-18T00:24:38.347Z,0.19
2022-10-18T00:26:18.127Z,0.23
2022-10-18T00:27:57.899Z,0.21
2022-10-18T00:29:37.651Z,0.23
2022-10-18T00:31:17.436Z,0.21
2022-10-18T00:32:57.206Z,0.25
2022-10-18T00:34:36.964Z,0.24
2022-10-18T00:36:16.741Z,0.24
2022-10-18T00:37:56.485Z,0.21
2022-10-18T00:39:36.297Z,0.24
2022-10-18T00:41:16.041Z,0.2
2022-10-18T00:42:55.796Z,0.19
2022-10-18T00:44:35.567Z,0.2
2022-10-18T00:46:15.360Z,0.22
2022-10-18T00:47:55.118Z,0.19
2022-10-18T00:49:34.877Z,0.22
2022-10-18T00:51:14.638Z,0.21
2022-10-18T00:52:54.405Z,0.23
2022-10-18T00:54:34.178Z,0.22
2022-10-18T00:56:13.958Z,0.23
2022-10-18T00:57:53.703Z,0.2
2022-10-18T00:59:33.485Z,0.21
2022-10-18T01:01:13.250Z,0.19
2022-10-18T01:04:32.775Z,0.21
2022-10-18T01:06:12.537Z,0.21
2022-10-18T01:07:52.321Z,0.2
2022-10-18T01:09:32.083Z,0.2
2022-10-18T01:11:11.851Z,0.21
2022-10-18T01:12:51.608Z,0.2
2022-10-18T01:14:31.378Z,0.23
2022-10-18T01:16:11.167Z,0.23
2022-10-18T01:17:50.949Z,0.23
2022-10-18T01:19:30.688Z,0.19
2022-10-18T01:21:10.451Z,0.21
2022-10-18T01:22:50.230Z,0.22
2022-10-18T01:24:29.988Z,0.23
2022-10-18T01:26:09.756Z,0.22
2022-10-18T01:27:49.520Z,0.21
2022-10-18T01:29:29.288Z,0.24
2022-10-18T01:31:09.094Z,0.24
2022-10-18T01:32:48.826Z,0.23
2022-10-18T01:34:28.585Z,0.24
2022-10-18T01:36:08.353Z,0.24
2022-10-18T01:37:48.118Z,0.24
2022-10-18T01:39:27.906Z,0.21
2022-10-18T01:41:07.664Z,0.23
2022-10-18T01:42:47.428Z,0.23
2022-10-18T01:44:27.195Z,0.23
2022-10-18T01:46:06.963Z,0.22
2022-10-18T01:47:46.730Z,0.22
2022-10-18T01:49:26.506Z,0.25
2022-10-18T01:51:06.280Z,0.27
2022-10-18T01:52:46.027Z,0.23
2022-10-18T01:54:25.798Z,0.22
2022-10-18T01:56:05.581Z,0.21
2022-10-18T01:57:45.339Z,0.25
2022-10-18T01:59:25.103Z,0.23
2022-10-18T02:01:04.865Z,0.26
2022-10-18T02:02:44.635Z,0.26
2022-10-18T02:04:24.402Z,0.25
2022-10-18T02:06:04.197Z,0.26
2022-10-18T02:07:43.949Z,0.26
2022-10-18T02:09:23.707Z,0.25
2022-10-18T02:11:03.478Z,0.26
2022-10-18T02:12:43.239Z,0.27
2022-10-18T02:14:23.026Z,0.26
2022-10-18T02:16:02.788Z,0.25
2022-10-18T02:17:42.557Z,0.27
2022-10-18T02:19:22.330Z,0.24
2022-10-18T02:21:02.083Z,0.27
2022-10-18T02:22:41.873Z,0.23
2022-10-18T02:24:21.626Z,0.24
2022-10-18T02:26:01.406Z,0.26
2022-10-18T02:27:41.146Z,0.24
2022-10-18T02:29:20.930Z,0.22
2022-10-18T02:31:00.689Z,0.24
2022-10-18T02:32:40.454Z,0.26
2022-10-18T02:34:20.240Z,0.25
2022-10-18T02:35:59.994Z,0.26
2022-10-18T02:37:39.771Z,0.25
2022-10-18T02:39:19.533Z,0.24
2022-10-18T02:40:59.295Z,0.28
2022-10-18T02:42:39.057Z,0.28
2022-10-18T02:44:18.847Z,0.27
2022-10-18T02:45:58.593Z,0.25
2022-10-18T02:47:38.367Z,0.24
2022-10-18T02:49:18.137Z,0.28
2022-10-18T02:50:57.899Z,0.23
2022-10-18T02:52:37.661Z,0.25
2022-10-18T02:54:17.432Z,0.24
2022-10-18T02:55:57.204Z,0.26
2022-10-18T02:57:36.966Z,0.28
2022-10-18T02:59:16.729Z,0.24
2022-10-18T03:00:56.528Z,0.29
2022-10-18T03:02:36.266Z,0.26
2022-10-18T03:04:16.057Z,0.23
2022-10-18T03:05:55.799Z,0.28
2022-10-18T03:07:35.571Z,0.23
2022-10-18T03:09:15.327Z,0.27
2022-10-18T03:10:55.100Z,0.23
2022-10-18T03:12:34.865Z,0.24
2022-10-18T03:14:14.628Z,0.23
2022-10-18T03:15:54.402Z,0.26
2022-10-18T03:17:34.173Z,0.28
2022-10-18T03:19:13.939Z,0.23
2022-10-18T03:20:53.706Z,0.25
2022-10-18T03:22:33.469Z,0.27
2022-10-18T03:24:13.245Z,0.24
2022-10-18T03:25:53.011Z,0.24
2022-10-18T03:27:32.774Z,0.26
2022-10-18T03:29:12.547Z,0.24
2022-10-18T03:30:52.317Z,0.27
2022-10-18T03:32:32.070Z,0.26
2022-10-18T03:34:11.838Z,0.28
2022-10-18T03:35:51.609Z,0.24
2022-10-18T03:37:31.390Z,0.25
2022-10-18T03:39:11.158Z,0.27
2022-10-18T03:40:50.911Z,0.25
2022-10-18T03:42:30.684Z,0.27
2022-10-18T03:44:10.456Z,0.29
2022-10-18T03:45:50.230Z,0.26
2022-10-18T03:47:29.981Z,0.3
2022-10-18T03:49:09.761Z,0.28
2022-10-18T03:50:49.528Z,0.29
2022-10-18T03:52:29.283Z,0.29
2022-10-18T03:54:09.048Z,0.3
2022-10-18T03:55:48.827Z,0.26
2022-10-18T03:57:28.574Z,0.26
2022-10-18T03:59:08.408Z,0.28
2022-10-18T04:00:48.122Z,0.3
2022-10-18T04:02:27.879Z,0.29
2022-10-18T04:04:07.633Z,0.29
2022-10-18T04:05:47.411Z,0.29
2022-10-18T04:07:27.178Z,0.28
2022-10-18T04:09:06.924Z,0.26
2022-10-18T04:10:46.701Z,0.27
2022-10-18T04:12:26.470Z,0.31
2022-10-18T04:14:06.219Z,0.3
2022-10-18T04:15:45.981Z,0.28
2022-10-18T04:17:25.747Z,0.32
2022-10-18T04:19:05.516Z,0.28
2022-10-18T04:20:45.293Z,0.3
2022-10-18T04:22:25.043Z,0.28
2022-10-18T04:24:04.820Z,0.31
2022-10-18T04:25:44.571Z,0.3
2022-10-18T04:27:24.334Z,0.28
2022-10-18T04:29:04.105Z,0.29
2022-10-18T04:30:43.876Z,0.33
2022-10-18T04:32:23.630Z,0.31
2022-10-18T04:35:43.212Z,0.29
2022-10-18T04:37:22.926Z,0.32
2022-10-18T04:39:02.689Z,0.32
2022-10-18T04:40:42.464Z,0.33
2022-10-18T04:42:22.223Z,0.33
2022-10-18T04:44:01.979Z,0.32
2022-10-18T04:45:41.752Z,0.35
2022-10-18T04:47:21.513Z,0.32
2022-10-18T04:49:01.276Z,0.32
2022-10-18T04:50:41.055Z,0.35
2022-10-18T04:52:20.817Z,0.41
2022-10-18T04:54:00.567Z,0.41
2022-10-18T04:55:40.356Z,0.45
2022-10-18T04:57:20.092Z,0.51
2022-10-18T04:58:59.861Z,0.6
2022-10-18T05:00:39.631Z,0.76
2022-10-18T05:02:19.420Z,0.98
2022-10-18T05:05:38.929Z,1.41
2022-10-18T05:07:18.688Z,1.8
2022-10-18T05:08:58.468Z,2.47
2022-10-18T05:10:38.229Z,3.46
2022-10-18T05:12:17.979Z,4.69
2022-10-18T05:13:57.738Z,6.22
2022-10-18T05:15:37.521Z,8.14
2022-10-18T05:17:17.274Z,9.75
2022-10-18T05:18:57.029Z,11.73
2022-10-18T05:20:36.813Z,14.18
2022-10-18T05:22:16.585Z,16.61
2022-10-18T05:23:56.330Z,18.28
2022-10-18T05:25:36.099Z,19.6
2022-10-18T05:27:15.883Z,21.6
2022-10-18T05:28:55.633Z,24.53
2022-10-18T05:30:35.383Z,26.15
2022-10-18T05:32:15.162Z,26.83
2022-10-18T05:33:54.910Z,26.87
2022-10-18T05:35:34.698Z,26.88
2022-10-18T05:37:14.454Z,26.91
2022-10-18T05:38:54.205Z,26.92
2022-10-18T05:40:33.977Z,26.94
2022-10-18T05:42:13.742Z,26.94
2022-10-18T05:43:53.509Z,26.95
2022-10-18T05:45:33.280Z,26.97
2022-10-18T05:47:13.043Z,26.95
2022-10-18T05:48:52.802Z,26.94
2022-10-18T05:50:32.573Z,26.94
2022-10-18T05:52:12.355Z,26.95
2022-10-18T05:53:52.095Z,26.94
2022-10-18T05:55:31.860Z,26.95
2022-10-18T05:57:11.617Z,26.94
2022-10-18T05:58:51.404Z,26.97
2022-10-18T06:00:31.159Z,26.96
2022-10-18T06:02:10.909Z,26.97
2022-10-18T06:03:50.677Z,26.98
2022-10-18T06:05:30.443Z,26.99
2022-10-18T06:07:10.215Z,26.99
2022-10-18T06:08:49.964Z,27
2022-10-18T06:10:29.740Z,27.01
2022-10-18T06:12:09.498Z,27.01
2022-10-18T06:13:49.258Z,27.02
2022-10-18T06:15:29.040Z,27.02
2022-10-18T06:17:08.793Z,27.03
2022-10-18T06:18:48.554Z,27.04
2022-10-18T06:20:28.329Z,27.03
2022-10-18T06:22:08.100Z,26.93
2022-10-18T06:23:47.849Z,27.03
2022-10-18T06:25:27.620Z,27.03
2022-10-18T06:27:07.383Z,27.04
2022-10-18T06:28:47.147Z,27.03
2022-10-18T06:30:26.906Z,27.03
2022-10-18T06:32:06.684Z,31.29
2022-10-18T06:33:46.439Z,27.03
2022-10-18T06:35:26.215Z,27.03
2022-10-18T06:37:05.981Z,27.06
2022-10-18T06:38:45.741Z,27.08
2022-10-18T06:40:25.502Z,27.08
2022-10-18T06:42:05.290Z,27.1
2022-10-18T06:43:45.039Z,27.1
2022-10-18T06:45:24.810Z,27.12
2022-10-18T06:47:04.600Z,27.15
2022-10-18T06:48:44.344Z,27.17
2022-10-18T06:50:24.113Z,27.19
2022-10-18T06:52:03.884Z,27.21
2022-10-18T06:53:43.648Z,27.26
2022-10-18T06:55:23.415Z,27.31
2022-10-18T06:57:03.198Z,27.43
2022-10-18T06:58:42.971Z,27.52
2022-10-18T07:02:02.506Z,27.64
2022-10-18T07:03:42.287Z,27.63
2022-10-18T07:05:22.077Z,27.61
2022-10-18T07:07:01.929Z,27.58
2022-10-18T07:08:41.587Z,27.54
2022-10-18T07:10:21.387Z,27.53
2022-10-18T07:12:01.119Z,27.38
2022-10-18T07:13:40.893Z,27.49
2022-10-18T07:15:20.696Z,27.49
2022-10-18T07:17:00.465Z,27.47
2022-10-18T07:18:40.212Z,27.49
2022-10-18T07:20:19.975Z,27.51
2022-10-18T07:21:59.737Z,27.54
2022-10-18T07:23:39.505Z,27.56
2022-10-18T07:25:19.276Z,27.58
2022-10-18T07:26:59.059Z,27.63
2022-10-18T07:28:38.814Z,27.71
2022-10-18T07:30:18.610Z,27.81
2022-10-18T07:31:58.360Z,27.89
2022-10-18T07:33:38.127Z,47.31
2022-10-18T07:35:17.912Z,28
2022-10-18T07:36:57.671Z,28.02
2022-10-18T07:40:17.227Z,28.08
2022-10-18T07:41:56.997Z,28.08
2022-10-18T07:43:36.766Z,28.08
2022-10-18T07:45:16.528Z,28.16
2022-10-18T07:46:56.291Z,28.26
2022-10-18T07:48:36.066Z,28.4
2022-10-18T07:50:15.844Z,28.52
2022-10-18T07:51:55.599Z,28.65
2022-10-18T07:53:35.386Z,28.76
2022-10-18T07:55:15.155Z,28.83
2022-10-18T07:56:54.913Z,28.83
2022-10-18T07:58:34.686Z,28.86
2022-10-18T08:00:14.481Z,28.84
2022-10-18T08:01:54.235Z,28.86
2022-10-18T08:03:33.997Z,28.82
2022-10-18T08:05:13.862Z,28.96
2022-10-18T08:06:53.550Z,29.09
2022-10-18T08:08:33.302Z,29.16
2022-10-18T08:10:13.099Z,29.22
2022-10-18T08:11:52.856Z,29.23
2022-10-18T08:13:32.620Z,29.2
2022-10-18T08:15:12.394Z,29.12
2022-10-18T08:16:52.170Z,29.04
2022-10-18T08:18:31.929Z,28.98
2022-10-18T08:20:11.709Z,28.95
2022-10-18T08:21:51.497Z,28.9
2022-10-18T08:23:31.254Z,28.84
2022-10-18T08:25:11.024Z,28.81
2022-10-18T08:26:50.789Z,28.77
2022-10-18T08:28:30.548Z,28.75
2022-10-18T08:30:10.437Z,28.66
2022-10-18T08:31:50.236Z,28.76
2022-10-18T08:33:30.004Z,79.31
2022-10-18T08:35:09.792Z,36.37
2022-10-18T08:36:49.535Z,28.75
2022-10-18T08:38:29.323Z,28.7
2022-10-18T08:40:09.080Z,28.68
2022-10-18T08:41:48.855Z,28.67
2022-10-18T08:43:28.600Z,28.65
2022-10-18T08:45:08.405Z,28.65
2022-10-18T08:46:48.196Z,28.65
2022-10-18T08:48:27.960Z,28.63
2022-10-18T08:50:07.727Z,28.61
2022-10-18T08:51:47.497Z,28.61
2022-10-18T08:53:27.258Z,28.6
2022-10-18T08:55:06.999Z,28.61
2022-10-18T08:56:46.795Z,28.61
2022-10-18T08:58:26.527Z,28.6
2022-10-18T09:00:06.272Z,28.6
2022-10-18T09:01:46.068Z,28.58
2022-10-18T09:03:25.857Z,28.56
2022-10-18T09:05:05.493Z,28.55
2022-10-18T09:06:45.273Z,28.52
2022-10-18T09:08:25.043Z,28.49
2022-10-18T09:10:04.975Z,28.47
2022-10-18T09:11:44.629Z,28.45
2022-10-18T09:13:24.381Z,28.42
2022-10-18T09:15:04.177Z,28.39
2022-10-18T09:16:43.902Z,28.39
2022-10-18T09:18:23.725Z,28.38
2022-10-18T09:20:03.459Z,28.38
2022-10-18T09:21:43.295Z,28.29
2022-10-18T09:23:22.996Z,28.27
2022-10-18T09:25:02.863Z,28.23
2022-10-18T09:26:42.620Z,28.21
2022-10-18T09:28:22.327Z,28.19
2022-10-18T09:30:02.208Z,28.2
2022-10-18T09:31:41.869Z,28.19
2022-10-18T09:33:21.599Z,28.19
2022-10-18T09:35:01.380Z,53.94
2022-10-18T09:36:41.146Z,32.36
2022-10-18T09:38:20.899Z,28.24
2022-10-18T09:40:00.683Z,28.25
2022-10-18T09:41:40.436Z,28.26
2022-10-18T09:43:20.281Z,28.3
2022-10-18T09:45:00.013Z,28.31
2022-10-18T09:46:39.790Z,28.34
2022-10-18T09:48:19.503Z,28.33
2022-10-18T09:49:59.326Z,28.31
2022-10-18T09:51:39.036Z,28.29
2022-10-18T09:53:18.826Z,28.27
2022-10-18T09:54:58.645Z,28.26
2022-10-18T09:56:38.359Z,28.25
2022-10-18T09:58:18.117Z,28.26
2022-10-18T09:59:57.921Z,28.26
2022-10-18T10:01:37.683Z,28.28
2022-10-18T10:03:17.451Z,28.29
2022-10-18T10:04:57.346Z,28.29
2022-10-18T10:06:36.980Z,28.31
2022-10-18T10:08:16.821Z,28.35
2022-10-18T10:09:56.533Z,28.38
2022-10-18T10:11:36.292Z,28.4
2022-10-18T10:13:16.090Z,28.33
2022-10-18T10:14:55.816Z,28.42
2022-10-18T10:16:35.609Z,28.42
2022-10-18T10:18:15.361Z,28.43
2022-10-18T10:19:55.246Z,28.43
2022-10-18T10:21:34.896Z,28.45
2022-10-18T10:23:14.684Z,28.46
2022-10-18T10:24:54.477Z,28.43
2022-10-18T10:26:34.222Z,28.39
2022-10-18T10:28:13.992Z,28.35
2022-10-18T10:29:53.760Z,28.31
2022-10-18T10:31:33.546Z,28.27
2022-10-18T10:33:13.301Z,28.24
2022-10-18T10:34:53.072Z,28.24
2022-10-18T10:36:32.825Z,38.63
2022-10-18T10:38:12.595Z,29.23
2022-10-18T10:39:52.365Z,28.26
2022-10-18T10:41:32.159Z,28.26
2022-10-18T10:43:11.988Z,28.28
2022-10-18T10:44:51.679Z,28.29
2022-10-18T10:46:31.462Z,28.28
2022-10-18T10:48:11.217Z,28.32
2022-10-18T10:49:50.997Z,28.34
2022-10-18T10:51:30.751Z,28.36
2022-10-18T10:53:10.532Z,28.39
2022-10-18T10:54:50.295Z,28.41
2022-10-18T10:56:30.075Z,28.45
2022-10-18T10:58:09.881Z,28.49
2022-10-18T10:59:49.621Z,28.54
2022-10-18T11:01:29.400Z,28.6
2022-10-18T11:03:09.148Z,28.65
2022-10-18T11:04:48.975Z,28.62
2022-10-18T11:06:28.694Z,28.81
2022-10-18T11:08:08.461Z,28.87
2022-10-18T11:09:48.324Z,28.93
2022-10-18T11:11:27.999Z,28.97
2022-10-18T11:13:07.797Z,28.95
2022-10-18T11:14:47.550Z,28.93
2022-10-18T11:16:27.321Z,28.92
2022-10-18T11:18:07.101Z,28.94
2022-10-18T11:19:46.853Z,28.98
2022-10-18T11:21:26.635Z,29.03
2022-10-18T11:23:06.431Z,29.08
2022-10-18T11:24:46.185Z,29.1
2022-10-18T11:26:25.944Z,29.13
2022-10-18T11:28:05.707Z,29.08
2022-10-18T11:29:45.509Z,29.07
2022-10-18T11:31:25.263Z,29.12
2022-10-18T11:33:05.083Z,29.18
2022-10-18T11:34:44.842Z,29.15
2022-10-18T11:36:24.564Z,43.25
2022-10-18T11:38:04.388Z,40.06
2022-10-18T11:39:44.094Z,29.17
2022-10-18T11:41:23.879Z,29.13
2022-10-18T11:43:03.651Z,29.2
2022-10-18T11:44:43.428Z,29.33
2022-10-18T11:46:23.187Z,29.46
2022-10-18T11:48:02.952Z,29.54
2022-10-18T11:49:42.741Z,29.54
2022-10-18T11:51:22.505Z,29.42
2022-10-18T11:53:02.259Z,29.47
2022-10-18T11:54:42.063Z,29.43
2022-10-18T11:56:21.820Z,29.56
2022-10-18T11:58:01.696Z,29.63
2022-10-18T11:59:41.343Z,29.54
2022-10-18T12:01:21.118Z,29.3
2022-10-18T12:03:00.888Z,29.24
2022-10-18T12:04:40.668Z,29.18
2022-10-18T12:06:20.430Z,29.08
2022-10-18T12:08:00.272Z,29.01
2022-10-18T12:09:39.970Z,29.02
2022-10-18T12:11:19.737Z,29.03
2022-10-18T12:12:59.524Z,28.95
2022-10-18T12:14:39.273Z,28.93
2022-10-18T12:16:19.093Z,28.96
2022-10-18T12:17:58.830Z,29.02
2022-10-18T12:19:38.619Z,29.08
2022-10-18T12:21:18.383Z,29.15
2022-10-18T12:22:58.145Z,29.15
2022-10-18T12:24:37.911Z,29.36
2022-10-18T12:26:17.680Z,29.39
2022-10-18T12:27:57.458Z,29.47
2022-10-18T12:29:37.221Z,29.56
2022-10-18T12:31:17.004Z,29.61
2022-10-18T12:32:56.754Z,29.57
2022-10-18T12:34:36.524Z,29.55
2022-10-18T12:36:16.307Z,29.62
2022-10-18T12:37:56.104Z,36.41
2022-10-18T12:39:35.836Z,79.75
2022-10-18T12:41:15.605Z,79.01
2022-10-18T12:42:55.383Z,79.16
2022-10-18T12:44:35.157Z,79.6
2022-10-18T12:46:14.974Z,79.29
2022-10-18T12:47:54.701Z,79.82
2022-10-18T12:49:34.471Z,79.92
2022-10-18T12:51:14.247Z,80.11
2022-10-18T12:52:54.008Z,79.68
2022-10-18T12:54:33.874Z,78.82
2022-10-18T12:56:13.550Z,78.44
2022-10-18T12:57:53.312Z,78.44
2022-10-18T12:59:33.098Z,77.83
2022-10-18T13:01:12.866Z,77.36
2022-10-18T13:02:52.630Z,78.04
2022-10-18T13:04:32.435Z,77.96
2022-10-18T13:06:12.175Z,74.89
2022-10-18T13:07:51.946Z,77.72
2022-10-18T13:09:31.761Z,77.87
2022-10-18T13:11:11.476Z,79.25
2022-10-18T13:12:51.283Z,80.93
2022-10-18T13:14:31.030Z,81.23
2022-10-18T13:16:10.821Z,81.46
2022-10-18T13:17:50.549Z,82.13
2022-10-18T13:19:30.342Z,82.39
2022-10-18T13:21:10.139Z,82.57
2022-10-18T13:22:49.874Z,82.3
2022-10-18T13:24:29.634Z,81.98
2022-10-18T13:26:09.463Z,80.58
2022-10-18T13:27:49.181Z,80.31
2022-10-18T13:29:28.958Z,79.6
2022-10-18T13:31:08.772Z,79.58
2022-10-18T13:32:48.504Z,79.75
2022-10-18T13:34:28.281Z,79.41
2022-10-18T13:36:08.048Z,79.58
2022-10-18T13:37:47.836Z,80.12
2022-10-18T13:39:27.587Z,80.99
2022-10-18T13:41:07.478Z,81.93
2022-10-18T13:42:47.132Z,81.26
2022-10-18T13:44:26.884Z,81.19
2022-10-18T13:46:06.681Z,80.48
2022-10-18T13:47:46.485Z,80.21
2022-10-18T13:49:26.194Z,81.43
2022-10-18T13:51:05.968Z,81.55
2022-10-18T13:52:45.734Z,81.89
2022-10-18T13:54:25.506Z,82.07
2022-10-18T13:56:05.282Z,81.83
2022-10-18T13:57:45.063Z,81.87
2022-10-18T13:59:24.844Z,82.89
2022-10-18T14:01:04.606Z,85.79
2022-10-18T14:02:44.371Z,83.79
2022-10-18T14:04:24.139Z,83.27
2022-10-18T14:06:03.910Z,83.15
2022-10-18T14:07:43.678Z,82.41
2022-10-18T14:09:23.485Z,81.42
2022-10-18T14:11:03.218Z,80.76
2022-10-18T14:12:42.987Z,80.5
2022-10-18T14:14:22.763Z,80.11
2022-10-18T14:16:02.526Z,84.22
2022-10-18T14:17:42.291Z,83.21
2022-10-18T14:19:22.105Z,85.54
2022-10-18T14:21:01.849Z,83.26
2022-10-18T14:22:41.653Z,87.32
2022-10-18T14:24:21.375Z,84.15
2022-10-18T14:26:01.157Z,86.56
2022-10-18T14:27:40.979Z,83.13
2022-10-18T14:29:20.686Z,83.44
2022-10-18T14:31:00.455Z,82.46
2022-10-18T14:32:40.235Z,81.91
2022-10-18T14:34:20.024Z,80.97
2022-10-18T14:35:59.764Z,79.81
2022-10-18T14:37:39.607Z,79.51
2022-10-18T14:39:19.301Z,77.83
2022-10-18T14:40:59.099Z,74.37
2022-10-18T14:42:38.871Z,76.5
2022-10-18T14:44:18.611Z,80.68
2022-10-18T14:45:58.402Z,81.94
2022-10-18T14:47:38.218Z,81.18
2022-10-18T14:50:57.702Z,81.44
2022-10-18T14:52:37.470Z,81.24
2022-10-18T14:54:17.298Z,77.44
2022-10-18T14:55:57.026Z,75.76
2022-10-18T14:57:36.788Z,77.68
2022-10-18T14:59:16.567Z,75.97
2022-10-18T15:00:56.335Z,80.24
2022-10-18T15:02:36.096Z,66.68
2022-10-18T15:04:15.895Z,42.49
2022-10-18T15:05:55.658Z,32.59
2022-10-18T15:07:35.406Z,29.57
2022-10-18T15:09:15.276Z,38.57
2022-10-18T15:10:54.950Z,29.63
2022-10-18T15:12:34.723Z,29.4
2022-10-18T15:14:14.510Z,29.35
2022-10-18T15:15:54.294Z,29.47
2022-10-18T15:17:34.029Z,29.5
2022-10-18T15:19:13.868Z,29.56
2022-10-18T15:20:53.579Z,29.87
2022-10-18T15:22:33.409Z,29.58
2022-10-18T15:24:13.099Z,29.63
2022-10-18T15:25:52.883Z,29.3
2022-10-18T15:27:32.639Z,29.55
2022-10-18T15:29:12.419Z,29.56
2022-10-18T15:30:52.190Z,29.46
2022-10-18T15:32:31.951Z,29.64
2022-10-18T15:34:11.722Z,29.41
2022-10-18T15:35:51.495Z,29.2
2022-10-18T15:37:31.259Z,29.09
2022-10-18T15:39:11.035Z,29.03
2022-10-18T15:40:50.801Z,28.88
2022-10-18T15:42:30.562Z,28.79
2022-10-18T15:44:10.348Z,28.7
2022-10-18T15:45:50.102Z,28.65
2022-10-18T15:47:29.888Z,28.62
2022-10-18T15:49:09.676Z,28.59
2022-10-18T15:50:49.415Z,28.43
2022-10-18T15:52:29.195Z,28.47
2022-10-18T15:54:08.954Z,28.4
2022-10-18T15:55:48.730Z,28.34
2022-10-18T15:57:28.484Z,28.3
2022-10-18T15:59:08.255Z,28.26
2022-10-18T16:00:48.015Z,28.2
2022-10-18T16:02:27.798Z,28.18
2022-10-18T16:04:07.568Z,28.13
2022-10-18T16:05:47.337Z,28.11
2022-10-18T16:07:27.101Z,28.08
2022-10-18T16:09:06.871Z,32.14
2022-10-18T16:10:46.632Z,28.01
2022-10-18T16:12:26.388Z,27.99
2022-10-18T16:14:06.245Z,27.95
2022-10-18T16:15:46.056Z,27.82
2022-10-18T16:17:25.703Z,27.89
2022-10-18T16:19:05.498Z,27.86
2022-10-18T16:20:45.231Z,27.83
2022-10-18T16:24:04.768Z,27.78
2022-10-18T16:25:44.528Z,27.73
2022-10-18T16:27:24.320Z,27.69
2022-10-18T16:29:04.063Z,27.64
2022-10-18T16:30:43.842Z,27.53
2022-10-18T16:32:23.609Z,22.48
2022-10-18T16:34:03.378Z,16.58
2022-10-18T16:35:43.138Z,11.74
2022-10-18T16:37:22.905Z,8.25
2022-10-18T16:39:02.683Z,5.91
2022-10-18T16:40:42.443Z,4.36
2022-10-18T16:42:22.250Z,3.24
2022-10-18T16:44:02.009Z,2.46
2022-10-18T16:45:41.748Z,1.89
2022-10-18T16:47:21.526Z,1.47
2022-10-18T16:49:01.369Z,1.12
2022-10-18T16:50:41.055Z,0.86
2022-10-18T16:52:20.870Z,0.71
2022-10-18T16:54:00.572Z,0.61
2022-10-18T16:55:40.348Z,0.47
2022-10-18T16:57:20.112Z,0.4
2022-10-18T16:58:59.918Z,0.35
2022-10-18T17:00:39.672Z,0.31
2022-10-18T17:02:19.416Z,0.27
2022-10-18T17:03:59.193Z,0.29
2022-10-18T17:05:38.958Z,0.24
2022-10-18T17:07:18.731Z,0.23
2022-10-18T17:08:58.564Z,0.26
2022-10-18T17:10:38.251Z,0.24
2022-10-18T17:12:18.014Z,0.23
2022-10-18T17:13:57.790Z,0.22
2022-10-18T17:15:37.574Z,0.19
2022-10-18T17:17:17.325Z,0.18
2022-10-18T17:18:57.098Z,0.22
2022-10-18T17:20:36.858Z,0.19
2022-10-18T17:22:16.638Z,0.19
2022-10-18T17:23:56.407Z,0.16
2022-10-18T17:25:36.185Z,0.18
2022-10-18T17:27:15.959Z,0.17
2022-10-18T17:28:55.703Z,0.2
2022-10-18T17:30:35.466Z,0.2
2022-10-18T17:32:15.238Z,0.17
2022-10-18T17:33:55.024Z,0.17
2022-10-18T17:35:34.769Z,0.17
2022-10-18T17:37:14.539Z,0.19
2022-10-18T17:38:54.313Z,0.16
2022-10-18T17:40:34.065Z,0.16
2022-10-18T17:42:13.830Z,0.16
2022-10-18T17:43:53.601Z,0.19
2022-10-18T17:45:33.392Z,0.17
2022-10-18T17:47:13.136Z,0.19
2022-10-18T17:48:52.917Z,0.16
2022-10-18T17:50:32.689Z,0.18
2022-10-18T17:53:52.218Z,0.2
2022-10-18T17:55:31.993Z,0.19
2022-10-18T17:57:11.740Z,0.18
2022-10-18T17:58:51.515Z,0.17
2022-10-18T18:00:31.276Z,0.19
2022-10-18T18:03:50.853Z,0.19
2022-10-18T18:07:10.344Z,0.16
2022-10-18T18:08:50.119Z,0.18
2022-10-18T18:10:29.896Z,0.19
2022-10-18T18:12:09.662Z,0.2
2022-10-18T18:13:49.425Z,0.19
2022-10-18T18:15:29.186Z,0.19
2022-10-18T18:17:08.965Z,0.2
2022-10-18T18:18:48.717Z,0.2
2022-10-18T18:20:28.492Z,0.17
2022-10-18T18:22:08.286Z,0.17
2022-10-18T18:23:48.033Z,0.16
2022-10-18T18:25:27.792Z,0.17
2022-10-18T18:27:07.569Z,0.16
2022-10-18T18:28:47.393Z,0.19
2022-10-18T18:30:27.091Z,0.19
2022-10-18T18:32:06.893Z,0.19
2022-10-18T18:33:46.652Z,0.19
2022-10-18T18:35:26.403Z,0.2
2022-10-18T18:37:06.155Z,0.17
2022-10-18T18:38:45.933Z,0.2
2022-10-18T18:40:25.697Z,0.18
2022-10-18T18:42:05.471Z,0.17
2022-10-18T18:43:45.237Z,0.2
2022-10-18T18:45:25.012Z,0.17
2022-10-18T18:47:04.802Z,0.19
2022-10-18T18:48:44.534Z,0.19
2022-10-18T18:50:24.331Z,0.19
2022-10-18T18:52:04.088Z,0.17
2022-10-18T18:53:43.844Z,0.2
2022-10-18T18:55:23.608Z,0.17
2022-10-18T18:57:03.383Z,0.21
2022-10-18T18:58:43.187Z,0.21
2022-10-18T19:00:22.919Z,0.19
2022-10-18T19:02:02.710Z,0.19
2022-10-18T19:03:42.444Z,0.2
2022-10-18T19:05:22.209Z,0.16
2022-10-18T19:07:02.080Z,0.19
2022-10-18T19:08:41.739Z,0.17
2022-10-18T19:10:21.516Z,0.16
2022-10-18T19:12:01.275Z,0.18
2022-10-18T19:13:41.080Z,0.19
2022-10-18T19:15:20.826Z,0.18
2022-10-18T19:17:00.585Z,0.16
2022-10-18T19:18:40.346Z,0.19
2022-10-18T19:20:20.103Z,0.18
2022-10-18T19:21:59.877Z,0.17
2022-10-18T19:23:39.662Z,0.19
2022-10-18T19:25:19.420Z,0.19
2022-10-18T19:26:59.194Z,0.18
2022-10-18T19:28:38.949Z,0.17
2022-10-18T19:30:18.715Z,0.19
2022-10-18T19:31:58.547Z,0.17
2022-10-18T19:33:38.263Z,0.19
2022-10-18T19:35:18.029Z,0.16
2022-10-18T19:36:57.793Z,0.16
2022-10-18T19:38:37.569Z,0.16
2022-10-18T19:40:17.336Z,0.2
2022-10-18T19:41:57.170Z,0.17
2022-10-18T19:43:36.861Z,0.19
2022-10-18T19:45:16.690Z,0.17
2022-10-18T19:46:56.449Z,0.19
2022-10-18T19:48:36.194Z,0.17
2022-10-18T19:50:15.924Z,0.16
2022-10-18T19:51:55.700Z,0.17
2022-10-18T19:53:35.513Z,0.19
2022-10-18T19:55:15.343Z,0.19
2022-10-18T19:56:55.052Z,0.18
2022-10-18T19:58:34.772Z,0.16
2022-10-18T20:00:14.642Z,0.17
2022-10-18T20:01:54.349Z,0.18
2022-10-18T20:03:34.179Z,0.16
2022-10-18T20:05:13.861Z,0.17
2022-10-18T20:06:53.647Z,0.17
2022-10-18T20:08:33.392Z,0.17
2022-10-18T20:10:13.196Z,0.16
2022-10-18T20:11:53.014Z,0.16
2022-10-18T20:13:32.685Z,0.21
2022-10-18T20:15:12.446Z,0.19
2022-10-18T20:16:52.281Z,0.17
2022-10-18T20:18:32.008Z,0.18
2022-10-18T20:20:11.870Z,0.18
2022-10-18T20:21:51.554Z,0.18
2022-10-18T20:23:31.294Z,0.19
2022-10-18T20:25:11.105Z,0.19
2022-10-18T20:26:50.882Z,0.19
2022-10-18T20:28:30.588Z,0.18
2022-10-18T20:30:10.397Z,0.16
2022-10-18T20:31:50.110Z,0.18
2022-10-18T20:33:29.885Z,0.16
2022-10-18T20:35:09.763Z,0.16
2022-10-18T20:36:49.420Z,0.16
2022-10-18T20:38:29.194Z,0.18
2022-10-18T20:40:09.054Z,0.19
2022-10-18T20:41:48.729Z,0.17
2022-10-18T20:43:28.482Z,0.19
2022-10-18T20:45:08.264Z,0.16
2022-10-18T20:46:48.013Z,0.16
2022-10-18T20:48:27.800Z,0.17
2022-10-18T20:50:07.600Z,0.17
2022-10-18T20:51:47.366Z,0.19
2022-10-18T20:53:27.079Z,0.19
2022-10-18T20:55:06.893Z,0.18
2022-10-18T20:56:46.634Z,0.17
2022-10-18T20:58:26.464Z,0.18
2022-10-18T21:00:06.211Z,0.17
2022-10-18T21:01:45.973Z,0.19
2022-10-18T21:03:25.748Z,0.18
2022-10-18T21:05:05.525Z,0.17
2022-10-18T21:06:45.273Z,0.17
2022-10-18T21:08:25.019Z,0.19
2022-10-18T21:10:04.796Z,0.16
2022-10-18T21:11:44.637Z,0.19
2022-10-18T21:13:24.302Z,0.16
2022-10-18T21:15:04.072Z,0.18
2022-10-18T21:16:43.832Z,0.17
2022-10-18T21:18:23.618Z,0.18
2022-10-18T21:20:03.414Z,0.19
2022-10-18T21:21:43.245Z,0.16
2022-10-18T21:23:22.909Z,0.16
2022-10-18T21:26:42.481Z,0.17
2022-10-18T21:28:22.255Z,0.18
2022-10-18T21:30:02.035Z,0.19
2022-10-18T21:33:21.497Z,0.16
2022-10-18T21:35:01.275Z,0.2
2022-10-18T21:36:41.046Z,0.19
2022-10-18T21:38:20.869Z,0.16
2022-10-18T21:40:00.572Z,0.17
2022-10-18T21:41:40.347Z,0.18
2022-10-18T21:43:20.107Z,0.17
2022-10-18T21:44:59.881Z,0.16
2022-10-18T21:46:39.656Z,0.18
2022-10-18T21:48:19.444Z,0.17
2022-10-18T21:49:59.196Z,0.16
2022-10-18T21:51:38.971Z,0.21
2022-10-18T21:53:18.723Z,0.18
2022-10-18T21:54:58.487Z,0.19
2022-10-18T21:56:38.252Z,0.16
2022-10-18T21:58:18.034Z,0.18
2022-10-18T21:59:57.797Z,0.17
2022-10-18T22:01:37.584Z,0.19
2022-10-18T22:03:17.329Z,0.19
2022-10-18T22:04:57.083Z,0.19
2022-10-18T22:06:36.860Z,0.16
2022-10-18T22:08:16.636Z,0.16
2022-10-18T22:09:56.402Z,0.18
2022-10-18T22:11:36.165Z,0.19